sensor_id;sensor_type;location;lat;lon;timestamp;pressure;altitude;pressure_sealevel;temperature;humidity
71476;BME280;59286;59.274;17.974;2023-02-28T00:00:31;102258.28;;;0.00;89.35
71476;BME280;59286;59.274;17.974;2023-02-28T00:02:56;102243.72;;;-0.07;89.37
71476;BME280;59286;59.274;17.974;2023-02-28T00:05:23;102226.59;;;-0.15;89.19
71476;BME280;59286;59.274;17.974;2023-02-28T00:07:49;102271.66;;;0.11;89.43
71476;BME280;59286;59.274;17.974;2023-02-28T00:10:20;102223.06;;;-0.14;88.89
71476;BME280;59286;59.274;17.974;2023-02-28T00:12:49;102241.34;;;-0.09;89.27
71476;BME280;59286;59.274;17.974;2023-02-28T00:15:17;102255.50;;;0.02;89.10
71476;BME280;59286;59.274;17.974;2023-02-28T00:17:43;102278.84;;;0.15;89.01
71476;BME280;59286;59.274;17.974;2023-02-28T00:20:11;102234.59;;;-0.10;89.58
71476;BME280;59286;59.274;17.974;2023-02-28T00:22:45;102289.59;;;0.19;88.72
71476;BME280;59286;59.274;17.974;2023-02-28T00:25:13;102259.28;;;-0.01;88.86
71476;BME280;59286;59.274;17.974;2023-02-28T00:27:39;102279.41;;;0.11;88.74
71476;BME280;59286;59.274;17.974;2023-02-28T00:30:12;102237.28;;;-0.18;88.56
71476;BME280;59286;59.274;17.974;2023-02-28T00:32:39;102243.34;;;-0.25;88.84
71476;BME280;59286;59.274;17.974;2023-02-28T00:35:05;102282.19;;;-0.06;89.68
71476;BME280;59286;59.274;17.974;2023-02-28T00:37:31;102315.84;;;0.08;89.06
71476;BME280;59286;59.274;17.974;2023-02-28T00:39:57;102296.31;;;-0.02;89.55
71476;BME280;59286;59.274;17.974;2023-02-28T00:42:23;102260.25;;;-0.23;89.77
71476;BME280;59286;59.274;17.974;2023-02-28T00:44:49;102262.69;;;-0.15;89.79
71476;BME280;59286;59.274;17.974;2023-02-28T00:47:15;102304.19;;;0.12;89.30
71476;BME280;59286;59.274;17.974;2023-02-28T00:49:41;102252.03;;;-0.12;89.34
71476;BME280;59286;59.274;17.974;2023-02-28T00:52:06;102281.91;;;0.04;89.22
71476;BME280;59286;59.274;17.974;2023-02-28T00:54:32;102304.81;;;0.14;89.62
71476;BME280;59286;59.274;17.974;2023-02-28T00:56:57;102298.06;;;0.13;89.68
71476;BME280;59286;59.274;17.974;2023-02-28T00:59:23;102200.97;;;-0.44;89.67
71476;BME280;59286;59.274;17.974;2023-02-28T01:01:48;102232.81;;;-0.30;89.39
71476;BME280;59286;59.274;17.974;2023-02-28T01:04:14;102257.72;;;-0.16;89.83
71476;BME280;59286;59.274;17.974;2023-02-28T01:06:40;102271.53;;;-0.03;89.52
71476;BME280;59286;59.274;17.974;2023-02-28T01:09:06;102247.91;;;-0.06;89.88
71476;BME280;59286;59.274;17.974;2023-02-28T01:11:32;102233.28;;;-0.20;89.75
71476;BME280;59286;59.274;17.974;2023-02-28T01:13:59;102227.28;;;-0.27;89.15
71476;BME280;59286;59.274;17.974;2023-02-28T01:16:25;102239.63;;;-0.23;89.03
71476;BME280;59286;59.274;17.974;2023-02-28T01:18:51;102244.16;;;-0.25;89.25
71476;BME280;59286;59.274;17.974;2023-02-28T01:21:20;102248.69;;;-0.27;90.24
71476;BME280;59286;59.274;17.974;2023-02-28T01:23:47;102219.69;;;-0.50;89.95
71476;BME280;59286;59.274;17.974;2023-02-28T01:26:16;102278.56;;;-0.11;89.46
71476;BME280;59286;59.274;17.974;2023-02-28T01:28:41;102242.84;;;-0.35;90.16
71476;BME280;59286;59.274;17.974;2023-02-28T01:31:08;102243.13;;;-0.30;90.00
71476;BME280;59286;59.274;17.974;2023-02-28T01:33:34;102231.50;;;-0.41;90.23
71476;BME280;59286;59.274;17.974;2023-02-28T01:36:13;102269.44;;;-0.14;90.29
71476;BME280;59286;59.274;17.974;2023-02-28T01:38:40;102232.00;;;-0.31;89.97
71476;BME280;59286;59.274;17.974;2023-02-28T01:41:22;102259.25;;;-0.22;90.29
71476;BME280;59286;59.274;17.974;2023-02-28T01:46:23;102217.94;;;-0.49;90.32
71476;BME280;59286;59.274;17.974;2023-02-28T01:49:14;102288.59;;;-0.02;90.26
71476;BME280;59286;59.274;17.974;2023-02-28T01:51:49;102200.81;;;-0.57;89.86
71476;BME280;59286;59.274;17.974;2023-02-28T01:54:26;102247.84;;;-0.34;90.36
71476;BME280;59286;59.274;17.974;2023-02-28T01:56:59;102237.81;;;-0.43;90.19
71476;BME280;59286;59.274;17.974;2023-02-28T01:59:42;102256.16;;;-0.32;89.76
71476;BME280;59286;59.274;17.974;2023-02-28T02:02:14;102245.78;;;-0.38;90.08
71476;BME280;59286;59.274;17.974;2023-02-28T02:04:59;102263.78;;;-0.24;90.09
71476;BME280;59286;59.274;17.974;2023-02-28T02:07:29;102231.91;;;-0.58;89.82
71476;BME280;59286;59.274;17.974;2023-02-28T02:10:00;102297.16;;;-0.16;89.84
71476;BME280;59286;59.274;17.974;2023-02-28T02:12:43;102297.34;;;-0.17;89.81
71476;BME280;59286;59.274;17.974;2023-02-28T02:15:16;102238.44;;;-0.56;90.61
71476;BME280;59286;59.274;17.974;2023-02-28T02:17:46;102270.03;;;-0.33;90.58
71476;BME280;59286;59.274;17.974;2023-02-28T02:23:26;102213.28;;;-0.75;90.65
71476;BME280;59286;59.274;17.974;2023-02-28T02:25:56;102232.88;;;-0.59;91.48
71476;BME280;59286;59.274;17.974;2023-02-28T02:34:21;102278.88;;;-0.21;90.49
71476;BME280;59286;59.274;17.974;2023-02-28T02:36:58;102298.69;;;-0.21;90.80
71476;BME280;59286;59.274;17.974;2023-02-28T02:42:25;102216.63;;;-0.74;90.77
71476;BME280;59286;59.274;17.974;2023-02-28T02:45:03;102257.53;;;-0.50;90.61
71476;BME280;59286;59.274;17.974;2023-02-28T02:47:30;102201.31;;;-0.82;91.41
71476;BME280;59286;59.274;17.974;2023-02-28T02:50:01;102247.78;;;-0.55;91.31
71476;BME280;59286;59.274;17.974;2023-02-28T02:52:42;102265.09;;;-0.49;91.67
71476;BME280;59286;59.274;17.974;2023-02-28T02:55:10;102255.13;;;-0.52;91.00
71476;BME280;59286;59.274;17.974;2023-02-28T02:57:44;102222.97;;;-0.77;91.46
71476;BME280;59286;59.274;17.974;2023-02-28T03:00:11;102276.69;;;-0.38;91.94
71476;BME280;59286;59.274;17.974;2023-02-28T03:02:39;102253.91;;;-0.56;91.76
71476;BME280;59286;59.274;17.974;2023-02-28T03:05:12;102236.47;;;-0.75;91.28
71476;BME280;59286;59.274;17.974;2023-02-28T03:07:40;102236.16;;;-0.80;91.27
71476;BME280;59286;59.274;17.974;2023-02-28T03:10:30;102251.53;;;-0.72;91.09
71476;BME280;59286;59.274;17.974;2023-02-28T03:13:09;102269.53;;;-0.57;91.13
71476;BME280;59286;59.274;17.974;2023-02-28T03:18:30;102245.84;;;-0.82;91.03
71476;BME280;59286;59.274;17.974;2023-02-28T03:23:38;102267.97;;;-0.73;91.86
71476;BME280;59286;59.274;17.974;2023-02-28T03:26:13;102224.31;;;-0.95;91.66
71476;BME280;59286;59.274;17.974;2023-02-28T03:28:53;102234.88;;;-0.90;91.62
71476;BME280;59286;59.274;17.974;2023-02-28T03:31:33;102269.09;;;-0.61;92.57
71476;BME280;59286;59.274;17.974;2023-02-28T03:34:05;102249.66;;;-0.78;92.25
71476;BME280;59286;59.274;17.974;2023-02-28T03:36:37;102274.00;;;-0.66;92.01
71476;BME280;59286;59.274;17.974;2023-02-28T03:39:13;102229.97;;;-1.00;92.15
71476;BME280;59286;59.274;17.974;2023-02-28T03:41:45;102194.78;;;-1.14;91.31
71476;BME280;59286;59.274;17.974;2023-02-28T03:44:28;102248.78;;;-0.85;92.43
71476;BME280;59286;59.274;17.974;2023-02-28T03:47:03;102232.81;;;-0.95;93.13
71476;BME280;59286;59.274;17.974;2023-02-28T03:49:37;102233.63;;;-0.94;91.88
71476;BME280;59286;59.274;17.974;2023-02-28T03:52:08;102214.91;;;-1.03;92.19
71476;BME280;59286;59.274;17.974;2023-02-28T03:54:41;102194.78;;;-1.14;92.44
71476;BME280;59286;59.274;17.974;2023-02-28T03:57:29;102210.09;;;-1.06;92.19
71476;BME280;59286;59.274;17.974;2023-02-28T04:00:14;102226.09;;;-0.96;92.06
71476;BME280;59286;59.274;17.974;2023-02-28T04:02:41;102244.63;;;-0.86;91.76
71476;BME280;59286;59.274;17.974;2023-02-28T04:05:07;102250.84;;;-0.80;92.02
71476;BME280;59286;59.274;17.974;2023-02-28T04:07:33;102221.38;;;-0.92;92.72
71476;BME280;59286;59.274;17.974;2023-02-28T04:09:59;102211.00;;;-0.99;92.82
71476;BME280;59286;59.274;17.974;2023-02-28T04:12:25;102199.47;;;-1.03;91.88
71476;BME280;59286;59.274;17.974;2023-02-28T04:14:50;102216.66;;;-0.89;92.69
71476;BME280;59286;59.274;17.974;2023-02-28T04:17:16;102199.72;;;-0.98;92.46
71476;BME280;59286;59.274;17.974;2023-02-28T04:19:42;102184.03;;;-1.03;93.28
71476;BME280;59286;59.274;17.974;2023-02-28T04:22:08;102213.38;;;-0.83;93.07
71476;BME280;59286;59.274;17.974;2023-02-28T04:24:34;102219.06;;;-0.73;92.83
71476;BME280;59286;59.274;17.974;2023-02-28T04:27:00;102219.06;;;-0.73;92.42
71476;BME280;59286;59.274;17.974;2023-02-28T04:29:28;102240.78;;;-0.61;92.34
71476;BME280;59286;59.274;17.974;2023-02-28T04:31:54;102225.16;;;-0.74;91.89
71476;BME280;59286;59.274;17.974;2023-02-28T04:34:23;102231.38;;;-0.68;91.78
71476;BME280;59286;59.274;17.974;2023-02-28T04:36:49;102262.16;;;-0.46;91.80
71476;BME280;59286;59.274;17.974;2023-02-28T04:39:16;102248.13;;;-0.58;92.31
71476;BME280;59286;59.274;17.974;2023-02-28T04:41:45;102219.69;;;-0.71;92.18
71476;BME280;59286;59.274;17.974;2023-02-28T04:44:10;102214.97;;;-0.82;92.47
71476;BME280;59286;59.274;17.974;2023-02-28T04:46:36;102177.03;;;-1.09;92.66
71476;BME280;59286;59.274;17.974;2023-02-28T04:49:01;102219.53;;;-0.84;92.53
71476;BME280;59286;59.274;17.974;2023-02-28T04:51:28;102242.91;;;-0.64;92.69
71476;BME280;59286;59.274;17.974;2023-02-28T04:53:53;102201.03;;;-0.87;92.75
71476;BME280;59286;59.274;17.974;2023-02-28T04:56:19;102184.03;;;-1.03;92.61
71476;BME280;59286;59.274;17.974;2023-02-28T04:58:45;102225.09;;;-0.80;92.33
71476;BME280;59286;59.274;17.974;2023-02-28T05:01:28;102264.56;;;-0.59;92.00
71476;BME280;59286;59.274;17.974;2023-02-28T05:03:56;102212.78;;;-1.00;91.91
71476;BME280;59286;59.274;17.974;2023-02-28T05:06:24;102234.41;;;-0.94;92.08
71476;BME280;59286;59.274;17.974;2023-02-28T05:08:50;102262.72;;;-0.79;91.71
71476;BME280;59286;59.274;17.974;2023-02-28T05:13:44;102229.91;;;-1.07;91.94
71476;BME280;59286;59.274;17.974;2023-02-28T05:16:09;102229.91;;;-1.07;92.04
71476;BME280;59286;59.274;17.974;2023-02-28T05:18:35;102216.31;;;-1.15;92.37
71476;BME280;59286;59.274;17.974;2023-02-28T05:21:00;102205.50;;;-1.25;91.92
71476;BME280;59286;59.274;17.974;2023-02-28T05:23:29;102282.16;;;-0.77;92.06
71476;BME280;59286;59.274;17.974;2023-02-28T05:25:54;102262.66;;;-0.86;92.13
71476;BME280;59286;59.274;17.974;2023-02-28T05:28:20;102253.41;;;-0.95;92.27
71476;BME280;59286;59.274;17.974;2023-02-28T05:30:47;102252.63;;;-0.95;92.23
71476;BME280;59286;59.274;17.974;2023-02-28T05:33:13;102247.03;;;-0.99;92.01
71476;BME280;59286;59.274;17.974;2023-02-28T05:35:39;102212.06;;;-1.23;92.21
71476;BME280;59286;59.274;17.974;2023-02-28T05:38:05;102279.78;;;-0.78;92.42
71476;BME280;59286;59.274;17.974;2023-02-28T05:40:31;102235.75;;;-1.13;92.03
71476;BME280;59286;59.274;17.974;2023-02-28T05:42:56;102234.06;;;-1.20;91.75
71476;BME280;59286;59.274;17.974;2023-02-28T05:45:21;102270.19;;;-0.99;92.83
71476;BME280;59286;59.274;17.974;2023-02-28T05:47:47;102221.63;;;-1.31;92.59
71476;BME280;59286;59.274;17.974;2023-02-28T05:50:12;102224.53;;;-1.34;92.92
71476;BME280;59286;59.274;17.974;2023-02-28T05:52:37;102235.22;;;-1.23;91.95
71476;BME280;59286;59.274;17.974;2023-02-28T05:55:03;102232.81;;;-1.24;92.87
71476;BME280;59286;59.274;17.974;2023-02-28T05:57:29;102232.75;;;-1.16;93.11
71476;BME280;59286;59.274;17.974;2023-02-28T05:59:54;102303.72;;;-0.78;92.69
71476;BME280;59286;59.274;17.974;2023-02-28T06:02:19;102296.72;;;-0.84;92.65
71476;BME280;59286;59.274;17.974;2023-02-28T06:04:45;102266.56;;;-1.05;92.03
71476;BME280;59286;59.274;17.974;2023-02-28T06:07:11;102214.88;;;-1.32;92.06
71476;BME280;59286;59.274;17.974;2023-02-28T06:09:37;102240.53;;;-1.24;91.98
71476;BME280;59286;59.274;17.974;2023-02-28T06:12:04;102283.13;;;-0.92;92.33
71476;BME280;59286;59.274;17.974;2023-02-28T06:14:34;102270.81;;;-0.97;92.70
71476;BME280;59286;59.274;17.974;2023-02-28T06:17:01;102252.31;;;-1.15;92.55
71476;BME280;59286;59.274;17.974;2023-02-28T06:19:28;102313.56;;;-0.67;92.27
71476;BME280;59286;59.274;17.974;2023-02-28T06:21:55;102291.22;;;-0.81;92.05
71476;BME280;59286;59.274;17.974;2023-02-28T06:24:23;102246.94;;;-1.06;91.88
71476;BME280;59286;59.274;17.974;2023-02-28T06:26:49;102225.28;;;-1.11;91.80
71476;BME280;59286;59.274;17.974;2023-02-28T06:29:16;102232.31;;;-1.05;92.25
71476;BME280;59286;59.274;17.974;2023-02-28T06:31:44;102247.72;;;-0.90;91.89
71476;BME280;59286;59.274;17.974;2023-02-28T06:34:10;102288.44;;;-0.65;91.57
71476;BME280;59286;59.274;17.974;2023-02-28T06:36:40;102307.41;;;-0.37;91.89
71476;BME280;59286;59.274;17.974;2023-02-28T06:39:06;102273.88;;;-0.58;91.98
71476;BME280;59286;59.274;17.974;2023-02-28T06:41:33;102223.84;;;-0.84;91.71
71476;BME280;59286;59.274;17.974;2023-02-28T06:44:13;102254.00;;;-0.49;91.59
71476;BME280;59286;59.274;17.974;2023-02-28T06:46:40;102254.84;;;-0.42;91.08
71476;BME280;59286;59.274;17.974;2023-02-28T06:49:06;102306.63;;;-0.02;90.01
71476;BME280;59286;59.274;17.974;2023-02-28T06:51:35;102289.47;;;0.06;89.84
71476;BME280;59286;59.274;17.974;2023-02-28T06:54:00;102254.41;;;-0.10;90.13
71476;BME280;59286;59.274;17.974;2023-02-28T06:56:26;102289.59;;;0.19;89.10
71476;BME280;59286;59.274;17.974;2023-02-28T06:58:51;102289.72;;;0.32;88.90
71476;BME280;59286;59.274;17.974;2023-02-28T07:01:20;102265.03;;;0.23;88.46
71476;BME280;59286;59.274;17.974;2023-02-28T07:03:47;102319.94;;;0.65;88.08
71476;BME280;59286;59.274;17.974;2023-02-28T07:06:35;102328.88;;;0.90;87.51
71476;BME280;59286;59.274;17.974;2023-02-28T07:09:08;102241.47;;;0.53;86.84
71476;BME280;59286;59.274;17.974;2023-02-28T07:11:34;102273.66;;;0.85;86.40
71476;BME280;59286;59.274;17.974;2023-02-28T07:13:59;102280.16;;;1.09;85.82
71476;BME280;59286;59.274;17.974;2023-02-28T07:16:25;102323.91;;;1.57;84.57
71476;BME280;59286;59.274;17.974;2023-02-28T07:18:54;102296.66;;;1.48;84.33
71476;BME280;59286;59.274;17.974;2023-02-28T07:21:20;102233.53;;;1.23;84.08
71476;BME280;59286;59.274;17.974;2023-02-28T07:23:46;102276.00;;;1.55;83.33
71476;BME280;59286;59.274;17.974;2023-02-28T07:26:14;102298.97;;;1.84;83.07
71476;BME280;59286;59.274;17.974;2023-02-28T07:28:45;102331.44;;;2.13;82.81
71476;BME280;59286;59.274;17.974;2023-02-28T07:31:11;102253.41;;;1.76;82.15
71476;BME280;59286;59.274;17.974;2023-02-28T07:33:39;102247.63;;;1.81;81.53
71476;BME280;59286;59.274;17.974;2023-02-28T07:36:15;102257.22;;;1.93;81.92
71476;BME280;59286;59.274;17.974;2023-02-28T07:38:45;102275.56;;;2.18;81.37
71476;BME280;59286;59.274;17.974;2023-02-28T07:41:13;102279.94;;;2.18;80.53
71476;BME280;59286;59.274;17.974;2023-02-28T07:43:39;102264.41;;;2.05;80.48
71476;BME280;59286;59.274;17.974;2023-02-28T07:46:08;102294.06;;;2.28;80.50
71476;BME280;59286;59.274;17.974;2023-02-28T07:48:34;102280.75;;;2.25;79.17
71476;BME280;59286;59.274;17.974;2023-02-28T07:51:00;102277.16;;;2.32;79.63
71476;BME280;59286;59.274;17.974;2023-02-28T07:53:27;102268.41;;;2.40;79.57
71476;BME280;59286;59.274;17.974;2023-02-28T07:56:00;102281.16;;;2.48;78.74
71476;BME280;59286;59.274;17.974;2023-02-28T07:58:26;102317.56;;;2.72;79.46
71476;BME280;59286;59.274;17.974;2023-02-28T08:00:52;102248.31;;;2.29;79.78
71476;BME280;59286;59.274;17.974;2023-02-28T08:03:19;102238.16;;;2.34;78.86
71476;BME280;59286;59.274;17.974;2023-02-28T08:05:47;102263.63;;;2.43;78.98
71476;BME280;59286;59.274;17.974;2023-02-28T08:08:14;102246.13;;;2.45;79.00
71476;BME280;59286;59.274;17.974;2023-02-28T08:10:39;102290.09;;;2.84;78.39
71476;BME280;59286;59.274;17.974;2023-02-28T08:13:05;102262.81;;;2.69;78.64
71476;BME280;59286;59.274;17.974;2023-02-28T08:15:30;102238.53;;;2.70;77.78
71476;BME280;59286;59.274;17.974;2023-02-28T08:17:56;102301.78;;;3.26;77.80
71476;BME280;59286;59.274;17.974;2023-02-28T08:20:24;102230.28;;;2.99;77.24
71476;BME280;59286;59.274;17.974;2023-02-28T08:22:50;102259.34;;;3.21;76.18
71476;BME280;59286;59.274;17.974;2023-02-28T08:25:15;102266.47;;;3.32;76.61
71476;BME280;59286;59.274;17.974;2023-02-28T08:27:41;102238.78;;;3.26;76.72
71476;BME280;59286;59.274;17.974;2023-02-28T08:30:07;102230.03;;;3.20;75.90
71476;BME280;59286;59.274;17.974;2023-02-28T08:32:35;102267.47;;;3.31;74.75
71476;BME280;59286;59.274;17.974;2023-02-28T08:35:01;102245.97;;;3.17;75.82
71476;BME280;59286;59.274;17.974;2023-02-28T08:37:28;102275.78;;;3.46;74.78
71476;BME280;59286;59.274;17.974;2023-02-28T08:39:58;102287.53;;;3.48;75.29
71476;BME280;59286;59.274;17.974;2023-02-28T08:42:24;102285.13;;;3.53;75.69
71476;BME280;59286;59.274;17.974;2023-02-28T08:44:50;102253.47;;;3.45;74.74
71476;BME280;59286;59.274;17.974;2023-02-28T08:47:15;102238.69;;;3.45;74.24
71476;BME280;59286;59.274;17.974;2023-02-28T08:49:50;102278.25;;;3.72;75.33
71476;BME280;59286;59.274;17.974;2023-02-28T08:52:15;102270.63;;;3.77;74.32
71476;BME280;59286;59.274;17.974;2023-02-28T08:54:43;102243.00;;;3.64;74.31
71476;BME280;59286;59.274;17.974;2023-02-28T08:57:09;102292.28;;;3.95;74.49
71476;BME280;59286;59.274;17.974;2023-02-28T08:59:34;102288.94;;;3.88;74.70
71476;BME280;59286;59.274;17.974;2023-02-28T09:01:59;102260.16;;;3.65;74.80
71476;BME280;59286;59.274;17.974;2023-02-28T09:04:25;102256.38;;;3.61;74.59
71476;BME280;59286;59.274;17.974;2023-02-28T09:06:50;102265.91;;;3.67;74.20
71476;BME280;59286;59.274;17.974;2023-02-28T09:09:17;102246.31;;;3.71;74.42
71476;BME280;59286;59.274;17.974;2023-02-28T09:11:42;102248.75;;;3.97;73.62
71476;BME280;59286;59.274;17.974;2023-02-28T09:14:08;102265.31;;;4.28;73.73
71476;BME280;59286;59.274;17.974;2023-02-28T09:16:34;102233.00;;;4.48;72.90
71476;BME280;59286;59.274;17.974;2023-02-28T09:18:59;102235.56;;;4.55;72.82
71476;BME280;59286;59.274;17.974;2023-02-28T09:21:25;102222.25;;;4.45;71.19
71476;BME280;59286;59.274;17.974;2023-02-28T09:23:51;102201.59;;;4.32;72.01
71476;BME280;59286;59.274;17.974;2023-02-28T09:26:20;102239.81;;;4.67;72.17
71476;BME280;59286;59.274;17.974;2023-02-28T09:28:46;102237.81;;;4.69;71.61
71476;BME280;59286;59.274;17.974;2023-02-28T09:31:13;102256.94;;;4.93;72.12
71476;BME280;59286;59.274;17.974;2023-02-28T09:33:39;102244.09;;;4.98;71.67
71476;BME280;59286;59.274;17.974;2023-02-28T09:36:05;102208.72;;;4.61;70.87
71476;BME280;59286;59.274;17.974;2023-02-28T09:38:30;102246.84;;;5.03;71.50
71476;BME280;59286;59.274;17.974;2023-02-28T09:40:59;102186.94;;;4.80;71.29
71476;BME280;59286;59.274;17.974;2023-02-28T09:43:37;102182.56;;;4.80;70.50
71476;BME280;59286;59.274;17.974;2023-02-28T09:46:44;102245.97;;;5.27;71.28
71476;BME280;59286;59.274;17.974;2023-02-28T09:49:23;102207.66;;;4.86;68.44
71476;BME280;59286;59.274;17.974;2023-02-28T09:52:01;102246.97;;;5.26;69.66
71476;BME280;59286;59.274;17.974;2023-02-28T09:54:29;102208.59;;;5.10;70.52
71476;BME280;59286;59.274;17.974;2023-02-28T10:05:19;102181.00;;;5.09;69.56
71476;BME280;59286;59.274;17.974;2023-02-28T10:10:42;102208.72;;;5.33;69.34
71476;BME280;59286;59.274;17.974;2023-02-28T10:13:20;102253.50;;;5.65;69.30
71476;BME280;59286;59.274;17.974;2023-02-28T10:15:52;102203.06;;;5.36;68.83
71476;BME280;59286;59.274;17.974;2023-02-28T10:18:29;102186.41;;;5.26;69.53
71476;BME280;59286;59.274;17.974;2023-02-28T10:20:56;102216.53;;;5.45;68.58
71476;BME280;59286;59.274;17.974;2023-02-28T10:23:28;102262.22;;;5.70;68.77
71476;BME280;59286;59.274;17.974;2023-02-28T10:26:05;102229.63;;;5.38;67.83
71476;BME280;59286;59.274;17.974;2023-02-28T10:28:35;102253.00;;;5.56;69.31
71476;BME280;59286;59.274;17.974;2023-02-28T10:31:05;102244.16;;;5.46;68.63
71476;BME280;59286;59.274;17.974;2023-02-28T10:33:35;102247.16;;;5.61;68.99
71476;BME280;59286;59.274;17.974;2023-02-28T10:36:02;102253.06;;;5.68;68.67
71476;BME280;59286;59.274;17.974;2023-02-28T10:38:33;102257.38;;;5.74;68.77
71476;BME280;59286;59.274;17.974;2023-02-28T10:41:10;102229.81;;;5.55;68.01
71476;BME280;59286;59.274;17.974;2023-02-28T10:43:38;102211.22;;;5.40;67.38
71476;BME280;59286;59.274;17.974;2023-02-28T10:48:41;102226.16;;;5.44;69.16
71476;BME280;59286;59.274;17.974;2023-02-28T10:51:15;102233.38;;;5.42;69.28
71476;BME280;59286;59.274;17.974;2023-02-28T10:53:50;102236.13;;;5.47;67.90
71476;BME280;59286;59.274;17.974;2023-02-28T10:56:22;102271.59;;;5.71;68.74
71476;BME280;59286;59.274;17.974;2023-02-28T11:01:46;102260.19;;;5.72;69.69
71476;BME280;59286;59.274;17.974;2023-02-28T11:07:16;102235.25;;;5.53;69.00
71476;BME280;59286;59.274;17.974;2023-02-28T11:09:45;102200.81;;;5.40;69.67
71476;BME280;59286;59.274;17.974;2023-02-28T11:15:35;102220.00;;;5.57;66.43
71476;BME280;59286;59.274;17.974;2023-02-28T11:20:38;102233.63;;;5.70;67.45
71476;BME280;59286;59.274;17.974;2023-02-28T11:23:12;102213.91;;;5.63;67.54
71476;BME280;59286;59.274;17.974;2023-02-28T11:25:39;102208.28;;;5.77;67.60
71476;BME280;59286;59.274;17.974;2023-02-28T11:28:09;102225.34;;;6.03;67.70
71476;BME280;59286;59.274;17.974;2023-02-28T11:33:53;102270.56;;;6.32;68.09
71476;BME280;59286;59.274;17.974;2023-02-28T11:36:29;102250.63;;;6.26;66.83
71476;BME280;59286;59.274;17.974;2023-02-28T11:39:09;102252.09;;;6.33;66.37
71476;BME280;59286;59.274;17.974;2023-02-28T11:41:52;102260.63;;;6.52;66.69
71476;BME280;59286;59.274;17.974;2023-02-28T11:50:48;102252.34;;;6.66;67.22
71476;BME280;59286;59.274;17.974;2023-02-28T12:02:24;102225.94;;;6.63;65.72
71476;BME280;59286;59.274;17.974;2023-02-28T12:05:13;102213.38;;;6.48;66.22
71476;BME280;59286;59.274;17.974;2023-02-28T12:07:50;102220.63;;;6.46;66.96
71476;BME280;59286;59.274;17.974;2023-02-28T12:10:26;102172.28;;;6.04;66.48
71476;BME280;59286;59.274;17.974;2023-02-28T12:15:36;102184.94;;;6.01;67.43
71476;BME280;59286;59.274;17.974;2023-02-28T12:24:13;102223.22;;;6.35;68.10
71476;BME280;59286;59.274;17.974;2023-02-28T12:26:45;102188.00;;;6.09;67.73
71476;BME280;59286;59.274;17.974;2023-02-28T12:29:28;102231.72;;;6.42;66.42
71476;BME280;59286;59.274;17.974;2023-02-28T12:32:06;102204.91;;;6.30;67.41
71476;BME280;59286;59.274;17.974;2023-02-28T12:35:04;102217.34;;;6.51;68.01
71476;BME280;59286;59.274;17.974;2023-02-28T12:37:37;102228.44;;;6.58;68.29
71476;BME280;59286;59.274;17.974;2023-02-28T12:40:34;102209.28;;;6.64;67.26
71476;BME280;59286;59.274;17.974;2023-02-28T12:43:13;102187.13;;;6.50;66.91
71476;BME280;59286;59.274;17.974;2023-02-28T12:45:55;102204.66;;;6.66;65.86
71476;BME280;59286;59.274;17.974;2023-02-28T12:48:31;102179.19;;;6.45;66.48
71476;BME280;59286;59.274;17.974;2023-02-28T12:51:01;102174.44;;;6.42;66.69
71476;BME280;59286;59.274;17.974;2023-02-28T12:56:13;102163.91;;;6.37;65.90
71476;BME280;59286;59.274;17.974;2023-02-28T13:04:28;102189.47;;;6.40;66.81
71476;BME280;59286;59.274;17.974;2023-02-28T13:09:59;102175.34;;;6.24;66.56
71476;BME280;59286;59.274;17.974;2023-02-28T13:12:26;102179.66;;;6.30;66.09
71476;BME280;59286;59.274;17.974;2023-02-28T13:15:21;102160.28;;;6.15;66.32
71476;BME280;59286;59.274;17.974;2023-02-28T13:20:47;102189.28;;;6.30;67.21
71476;BME280;59286;59.274;17.974;2023-02-28T13:23:40;102206.72;;;6.41;67.29
71476;BME280;59286;59.274;17.974;2023-02-28T13:26:16;102188.47;;;6.29;67.10
71476;BME280;59286;59.274;17.974;2023-02-28T13:31:13;102214.19;;;6.49;66.75
71476;BME280;59286;59.274;17.974;2023-02-28T13:38:42;102164.94;;;6.13;67.63
71476;BME280;59286;59.274;17.974;2023-02-28T13:44:15;102213.16;;;6.50;66.69
71476;BME280;59286;59.274;17.974;2023-02-28T13:58:17;102224.69;;;6.31;68.07
71476;BME280;59286;59.274;17.974;2023-02-28T14:06:30;102212.69;;;6.18;68.38
71476;BME280;59286;59.274;17.974;2023-02-28T14:09:03;102183.91;;;5.90;67.80
71476;BME280;59286;59.274;17.974;2023-02-28T14:11:36;102225.91;;;6.05;68.48
71476;BME280;59286;59.274;17.974;2023-02-28T14:14:02;102202.06;;;5.78;68.73
71476;BME280;59286;59.274;17.974;2023-02-28T14:16:44;102190.50;;;5.74;69.00
71476;BME280;59286;59.274;17.974;2023-02-28T14:22:00;102159.59;;;5.55;68.87
71476;BME280;59286;59.274;17.974;2023-02-28T14:38:37;102164.34;;;5.58;69.73
71476;BME280;59286;59.274;17.974;2023-02-28T14:41:17;102163.19;;;5.54;69.16
71476;BME280;59286;59.274;17.974;2023-02-28T14:43:56;102173.97;;;5.57;69.68
71476;BME280;59286;59.274;17.974;2023-02-28T14:46:25;102165.59;;;5.55;68.88
71476;BME280;59286;59.274;17.974;2023-02-28T14:48:51;102182.47;;;5.64;69.05
71476;BME280;59286;59.274;17.974;2023-02-28T14:51:22;102165.94;;;5.59;68.20
71476;BME280;59286;59.274;17.974;2023-02-28T14:53:51;102156.34;;;5.59;69.02
71476;BME280;59286;59.274;17.974;2023-02-28T14:56:27;102152.72;;;5.60;69.67
71476;BME280;59286;59.274;17.974;2023-02-28T14:58:57;102151.00;;;5.54;69.71
71476;BME280;59286;59.274;17.974;2023-02-28T15:01:23;102181.66;;;5.64;69.79
71476;BME280;59286;59.274;17.974;2023-02-28T15:03:58;102120.41;;;5.27;69.82
71476;BME280;59286;59.274;17.974;2023-02-28T15:06:26;102154.47;;;5.48;70.10
71476;BME280;59286;59.274;17.974;2023-02-28T15:09:18;102163.75;;;5.44;70.04
71476;BME280;59286;59.274;17.974;2023-02-28T15:11:48;102142.00;;;5.27;70.66
71476;BME280;59286;59.274;17.974;2023-02-28T15:14:18;102145.25;;;5.23;70.33